createdAt,value
2018-10-16T00:00:10.055Z,0.00
2018-10-16T00:01:10.233Z,0.00
2018-10-16T00:02:10.411Z,0.00
2018-10-16T00:03:10.617Z,0.00
2018-10-16T00:04:10.758Z,4.00
2018-10-16T00:05:10.943Z,0.00
2018-10-16T00:06:11.330Z,0.00
2018-10-16T00:07:11.314Z,0.00
2018-10-16T00:08:11.473Z,0.00
2018-10-16T00:09:11.653Z,0.00
2018-10-16T00:10:11.839Z,0.00
2018-10-16T00:11:12.012Z,4.00
2018-10-16T00:12:12.197Z,4.00
2018-10-16T00:13:12.355Z,0.00
2018-10-16T00:14:12.528Z,0.00
2018-10-16T00:15:12.700Z,0.00
2018-10-16T00:16:12.882Z,0.00
2018-10-16T00:17:13.048Z,0.00
2018-10-16T00:18:13.231Z,4.00
2018-10-16T00:19:13.420Z,0.00
2018-10-16T00:20:13.578Z,4.00
2018-10-16T00:21:13.749Z,4.00
2018-10-16T00:22:13.930Z,4.00
2018-10-16T00:23:14.107Z,4.00
2018-10-16T00:24:14.295Z,4.00
2018-10-16T00:25:14.476Z,4.00
2018-10-16T00:26:14.645Z,0.00
2018-10-16T00:27:14.807Z,0.00
2018-10-16T00:28:15.000Z,0.00
2018-10-16T00:29:15.169Z,4.00
2018-10-16T00:30:15.346Z,4.00
2018-10-16T00:31:15.527Z,0.00
2018-10-16T00:32:15.702Z,4.00
2018-10-16T00:33:15.873Z,0.00
2018-10-16T00:34:16.044Z,0.00
2018-10-16T00:35:16.208Z,0.00
2018-10-16T00:36:16.381Z,4.00
2018-10-16T00:37:16.572Z,0.00
2018-10-16T00:38:16.742Z,0.00
2018-10-16T00:39:16.936Z,4.00
2018-10-16T00:40:17.115Z,0.00
2018-10-16T00:41:17.293Z,4.00
2018-10-16T00:42:17.471Z,4.00
2018-10-16T00:43:17.645Z,0.00
2018-10-16T00:44:17.820Z,0.00
2018-10-16T00:45:17.999Z,0.00
2018-10-16T00:46:18.181Z,0.00
2018-10-16T00:47:18.362Z,0.00
2018-10-16T00:48:18.525Z,0.00
2018-10-16T00:49:18.707Z,0.00
2018-10-16T00:50:18.903Z,0.00
2018-10-16T00:51:19.065Z,4.00
2018-10-16T00:52:19.222Z,0.00
2018-10-16T00:53:19.406Z,4.00
2018-10-16T00:54:19.654Z,0.00
2018-10-16T00:55:19.821Z,0.00
2018-10-16T00:56:19.940Z,4.00
2018-10-16T00:57:20.085Z,4.00
2018-10-16T00:58:20.317Z,4.00
2018-10-16T00:59:20.493Z,4.00
2018-10-16T01:00:20.644Z,0.00
2018-10-16T01:01:20.829Z,4.00
2018-10-16T01:02:21.006Z,4.00
2018-10-16T01:03:21.193Z,0.00
2018-10-16T01:04:21.365Z,4.00
2018-10-16T01:05:21.544Z,4.00
2018-10-16T01:06:21.720Z,0.00
2018-10-16T01:07:21.895Z,0.00
2018-10-16T01:08:22.066Z,0.00
2018-10-16T01:09:22.241Z,0.00
2018-10-16T01:10:22.412Z,0.00
2018-10-16T01:11:22.584Z,0.00
2018-10-16T01:12:22.769Z,0.00
2018-10-16T01:13:22.925Z,0.00
2018-10-16T01:14:23.094Z,4.00
2018-10-16T01:15:23.289Z,4.00
2018-10-16T01:16:23.454Z,0.00
2018-10-16T01:17:23.682Z,0.00
2018-10-16T01:18:23.823Z,0.00
2018-10-16T01:19:23.994Z,0.00
2018-10-16T01:20:24.183Z,0.00
2018-10-16T01:21:24.302Z,0.00
2018-10-16T01:22:24.463Z,0.00
2018-10-16T01:23:24.633Z,0.00
2018-10-16T01:24:24.789Z,0.00
2018-10-16T01:25:24.968Z,0.00
2018-10-16T01:26:25.149Z,0.00
2018-10-16T01:27:25.287Z,0.00
2018-10-16T01:28:25.493Z,0.00
2018-10-16T01:29:25.623Z,4.00
2018-10-16T01:30:25.799Z,4.00
2018-10-16T01:31:25.978Z,4.00
2018-10-16T01:32:26.138Z,0.00
2018-10-16T01:33:26.305Z,4.00
2018-10-16T01:34:26.478Z,4.00
2018-10-16T01:35:26.645Z,4.00
2018-10-16T01:36:26.852Z,4.00
2018-10-16T01:37:26.980Z,4.00
2018-10-16T01:38:27.164Z,0.00
2018-10-16T01:39:27.309Z,0.00
2018-10-16T01:40:27.486Z,0.00
2018-10-16T01:41:27.644Z,0.00
2018-10-16T01:42:27.820Z,0.00
2018-10-16T01:43:28.002Z,0.00
2018-10-16T01:44:28.138Z,0.00
2018-10-16T01:45:28.322Z,4.00
2018-10-16T01:46:28.498Z,0.00
2018-10-16T01:47:28.669Z,0.00
2018-10-16T01:48:28.839Z,4.00
2018-10-16T01:49:29.013Z,0.00
2018-10-16T01:50:29.188Z,0.00
2018-10-16T01:51:29.373Z,4.00
2018-10-16T01:52:29.542Z,0.00
2018-10-16T01:53:29.714Z,4.00
2018-10-16T01:54:29.877Z,0.00
2018-10-16T01:55:30.046Z,0.00
2018-10-16T01:56:30.232Z,0.00
2018-10-16T01:57:30.387Z,0.00
2018-10-16T01:58:30.552Z,0.00
2018-10-16T01:59:30.722Z,4.00
2018-10-16T02:00:30.893Z,0.00
2018-10-16T02:01:31.046Z,4.00
2018-10-16T02:02:31.240Z,0.00
2018-10-16T02:03:31.408Z,0.00
2018-10-16T02:04:31.592Z,4.00
2018-10-16T02:05:31.778Z,0.00
2018-10-16T02:06:31.957Z,4.00
2018-10-16T02:07:32.132Z,0.00
2018-10-16T02:08:32.307Z,0.00
2018-10-16T02:09:32.474Z,4.00
2018-10-16T02:10:32.645Z,0.00
2018-10-16T02:11:32.823Z,0.00
2018-10-16T02:12:33.000Z,0.00
2018-10-16T02:13:33.153Z,0.00
2018-10-16T02:14:33.377Z,0.00
2018-10-16T02:15:33.503Z,0.00
2018-10-16T02:16:33.675Z,4.00
2018-10-16T02:17:33.854Z,4.00
2018-10-16T02:18:34.021Z,0.00
2018-10-16T02:19:34.195Z,0.00
2018-10-16T02:20:34.352Z,0.00
2018-10-16T02:21:34.538Z,4.00
2018-10-16T02:22:34.703Z,0.00
2018-10-16T02:23:34.865Z,4.00
2018-10-16T02:24:35.044Z,4.00
2018-10-16T02:25:35.220Z,0.00
2018-10-16T02:26:35.405Z,0.00
2018-10-16T02:27:35.583Z,0.00
2018-10-16T02:28:35.772Z,0.00
2018-10-16T02:29:35.931Z,0.00
2018-10-16T02:30:36.104Z,0.00
2018-10-16T02:31:36.280Z,4.00
2018-10-16T02:32:36.458Z,0.00
2018-10-16T02:33:36.630Z,0.00
2018-10-16T02:34:36.802Z,0.00
2018-10-16T02:35:36.994Z,0.00
2018-10-16T02:36:37.157Z,0.00
2018-10-16T02:37:37.324Z,0.00
2018-10-16T02:38:37.493Z,0.00
2018-10-16T02:39:37.674Z,0.00
2018-10-16T02:40:37.854Z,0.00
2018-10-16T02:41:38.031Z,0.00
2018-10-16T02:42:38.211Z,0.00
2018-10-16T02:43:38.389Z,0.00
2018-10-16T02:44:38.564Z,0.00
2018-10-16T02:45:38.754Z,4.00
2018-10-16T02:46:38.923Z,0.00
2018-10-16T02:47:39.100Z,0.00
2018-10-16T02:48:39.276Z,0.00
2018-10-16T02:49:39.455Z,0.00
2018-10-16T02:50:39.628Z,0.00
2018-10-16T02:51:39.795Z,0.00
2018-10-16T02:52:39.969Z,0.00
2018-10-16T02:53:40.138Z,0.00
2018-10-16T02:54:40.311Z,0.00
2018-10-16T02:55:40.489Z,4.00
2018-10-16T02:56:40.663Z,0.00
2018-10-16T02:57:40.841Z,4.00
2018-10-16T02:58:41.018Z,0.00
2018-10-16T02:59:41.197Z,0.00
2018-10-16T03:00:41.382Z,0.00
2018-10-16T03:01:41.542Z,4.00
2018-10-16T03:02:41.721Z,0.00
2018-10-16T03:03:41.891Z,0.00
2018-10-16T03:04:42.056Z,0.00
2018-10-16T03:05:42.234Z,0.00
2018-10-16T03:06:42.392Z,4.00
2018-10-16T03:07:42.580Z,0.00
2018-10-16T03:08:42.740Z,4.00
2018-10-16T03:09:42.915Z,4.00
2018-10-16T03:10:43.095Z,0.00
2018-10-16T03:11:43.270Z,0.00
2018-10-16T03:12:43.446Z,0.00
2018-10-16T03:13:43.611Z,0.00
2018-10-16T03:14:43.794Z,4.00
2018-10-16T03:15:43.963Z,0.00
2018-10-16T03:16:44.140Z,0.00
2018-10-16T03:17:44.319Z,0.00
2018-10-16T03:18:44.491Z,0.00
2018-10-16T03:19:44.715Z,4.00
2018-10-16T03:20:44.836Z,0.00
2018-10-16T03:21:45.028Z,0.00
2018-10-16T03:22:45.192Z,0.00
2018-10-16T03:23:45.356Z,0.00
2018-10-16T03:24:45.529Z,0.00
2018-10-16T03:25:45.709Z,4.00
2018-10-16T03:26:45.884Z,0.00
2018-10-16T03:27:46.066Z,0.00
2018-10-16T03:28:46.252Z,4.00
2018-10-16T03:29:46.410Z,0.00
2018-10-16T03:30:46.585Z,0.00
2018-10-16T03:31:46.763Z,4.00
2018-10-16T03:32:46.922Z,0.00
2018-10-16T03:33:47.098Z,4.00
2018-10-16T03:34:47.291Z,4.00
2018-10-16T03:35:47.448Z,0.00
2018-10-16T03:36:47.624Z,0.00
2018-10-16T03:37:47.797Z,0.00
2018-10-16T03:38:47.978Z,0.00
2018-10-16T03:39:48.151Z,0.00
2018-10-16T03:40:48.333Z,4.00
2018-10-16T03:41:48.495Z,0.00
2018-10-16T03:42:48.658Z,0.00
2018-10-16T03:43:48.830Z,4.00
2018-10-16T03:44:49.016Z,0.00
2018-10-16T03:45:49.164Z,4.00
2018-10-16T03:46:49.339Z,4.00
2018-10-16T03:47:49.514Z,0.00
2018-10-16T03:48:49.683Z,0.00
2018-10-16T03:49:49.857Z,0.00
2018-10-16T03:50:50.036Z,4.00
2018-10-16T03:51:50.212Z,4.00
2018-10-16T03:52:50.389Z,0.00
2018-10-16T03:53:50.567Z,4.00
2018-10-16T03:54:50.739Z,4.00
2018-10-16T03:55:50.904Z,0.00
2018-10-16T03:56:51.055Z,0.00
2018-10-16T03:57:51.222Z,0.00
2018-10-16T03:58:51.411Z,0.00
2018-10-16T03:59:51.564Z,0.00
2018-10-16T04:00:51.757Z,4.00
2018-10-16T04:01:51.902Z,4.00
2018-10-16T04:02:52.080Z,0.00
2018-10-16T04:03:52.231Z,4.00
2018-10-16T04:04:52.402Z,0.00
2018-10-16T04:05:52.569Z,0.00
2018-10-16T04:06:52.872Z,0.00
2018-10-16T04:07:52.898Z,4.00
2018-10-16T04:08:53.065Z,0.00
2018-10-16T04:09:53.243Z,4.00
2018-10-16T04:10:53.434Z,4.00
2018-10-16T04:11:53.612Z,4.00
2018-10-16T04:12:53.775Z,0.00
2018-10-16T04:13:54.014Z,0.00
2018-10-16T04:14:54.128Z,4.00
2018-10-16T04:15:54.304Z,4.00
2018-10-16T04:16:54.479Z,0.00
2018-10-16T04:17:54.658Z,4.00
2018-10-16T04:18:54.823Z,4.00
2018-10-16T04:19:55.021Z,4.00
2018-10-16T04:20:55.164Z,0.00
2018-10-16T04:21:55.335Z,4.00
2018-10-16T04:22:55.585Z,4.00
2018-10-16T04:23:55.694Z,0.00
2018-10-16T04:24:55.862Z,0.00
2018-10-16T04:25:56.037Z,0.00
2018-10-16T04:26:56.192Z,4.00
2018-10-16T04:27:56.346Z,0.00
2018-10-16T04:28:56.562Z,0.00
2018-10-16T04:29:56.715Z,4.00
2018-10-16T04:30:56.875Z,0.00
2018-10-16T04:31:57.056Z,0.00
2018-10-16T04:32:57.215Z,4.00
2018-10-16T04:33:57.410Z,4.00
2018-10-16T04:34:57.544Z,0.00
2018-10-16T04:35:57.760Z,0.00
2018-10-16T04:36:57.888Z,0.00
2018-10-16T04:37:58.050Z,0.00
2018-10-16T04:38:58.232Z,0.00
2018-10-16T04:39:58.401Z,0.00
2018-10-16T04:40:58.565Z,0.00
2018-10-16T04:41:58.729Z,0.00
2018-10-16T04:42:58.887Z,0.00
2018-10-16T04:43:59.069Z,0.00
2018-10-16T04:44:59.243Z,0.00
2018-10-16T04:45:59.415Z,4.00
2018-10-16T04:46:59.608Z,0.00
2018-10-16T04:47:59.761Z,0.00
2018-10-16T04:48:59.958Z,4.00
2018-10-16T04:50:00.120Z,4.00
2018-10-16T04:51:00.282Z,0.00
2018-10-16T04:52:00.457Z,0.00
2018-10-16T04:53:00.623Z,0.00
2018-10-16T04:54:00.791Z,0.00
2018-10-16T04:55:00.991Z,4.00
2018-10-16T04:56:01.234Z,4.00
2018-10-16T04:57:01.297Z,0.00
2018-10-16T04:58:01.466Z,0.00
2018-10-16T04:59:01.636Z,0.00
2018-10-16T05:00:01.815Z,0.00
2018-10-16T05:01:01.996Z,0.00
2018-10-16T05:02:02.183Z,0.00
2018-10-16T05:03:02.349Z,0.00
2018-10-16T05:04:02.592Z,0.00
2018-10-16T05:05:02.669Z,0.00
2018-10-16T05:06:02.863Z,0.00
2018-10-16T05:07:03.024Z,4.00
2018-10-16T05:08:03.183Z,0.00
2018-10-16T05:09:03.360Z,0.00
2018-10-16T05:10:03.523Z,0.00
2018-10-16T05:11:03.695Z,0.00
2018-10-16T05:12:03.845Z,0.00
2018-10-16T05:13:04.079Z,4.00
2018-10-16T05:14:04.196Z,4.00
2018-10-16T05:15:04.365Z,4.00
2018-10-16T05:16:04.548Z,4.00
2018-10-16T05:17:04.693Z,4.00
2018-10-16T05:18:04.865Z,4.00
2018-10-16T05:19:05.056Z,4.00
2018-10-16T05:20:05.228Z,4.00
2018-10-16T05:21:05.394Z,8.00
2018-10-16T05:22:05.557Z,8.00
2018-10-16T05:23:05.730Z,8.00
2018-10-16T05:24:05.900Z,8.00
2018-10-16T05:25:06.077Z,12.00
2018-10-16T05:26:06.251Z,16.00
2018-10-16T05:27:06.441Z,16.00
2018-10-16T05:28:06.619Z,20.00
2018-10-16T05:29:06.798Z,24.00
2018-10-16T05:30:06.973Z,28.00
2018-10-16T05:31:07.258Z,32.00
2018-10-16T05:32:07.313Z,36.00
2018-10-16T05:33:07.470Z,40.00
2018-10-16T05:34:07.647Z,48.00
2018-10-16T05:35:07.821Z,56.00
2018-10-16T05:36:07.994Z,60.00
2018-10-16T05:37:08.172Z,68.00
2018-10-16T05:38:08.345Z,72.00
2018-10-16T05:39:08.534Z,84.00
2018-10-16T05:40:08.693Z,92.00
2018-10-16T05:41:08.849Z,100.00
2018-10-16T05:42:09.037Z,112.00
2018-10-16T05:43:09.212Z,124.00
2018-10-16T05:44:09.392Z,132.00
2018-10-16T05:45:09.563Z,144.00
2018-10-16T05:46:09.747Z,156.00
2018-10-16T05:47:09.932Z,168.00
2018-10-16T05:48:10.089Z,180.00
2018-10-16T05:49:10.263Z,192.00
2018-10-16T05:50:10.438Z,208.00
2018-10-16T05:51:10.619Z,224.00
2018-10-16T05:52:10.797Z,244.00
2018-10-16T05:53:10.967Z,268.00
2018-10-16T05:54:11.159Z,288.00
2018-10-16T05:55:11.320Z,312.00
2018-10-16T05:56:11.484Z,340.00
2018-10-16T05:57:11.652Z,368.00
2018-10-16T05:58:11.822Z,400.00
2018-10-16T05:59:11.995Z,436.00
2018-10-16T06:00:12.172Z,472.00
2018-10-16T06:01:12.354Z,516.00
2018-10-16T06:02:12.522Z,556.00
2018-10-16T06:03:12.698Z,604.00
2018-10-16T06:04:12.861Z,652.00
2018-10-16T06:05:13.073Z,696.00
2018-10-16T06:06:13.515Z,744.00
2018-10-16T06:07:13.401Z,788.00
2018-10-16T06:08:13.588Z,840.00
2018-10-16T06:09:13.759Z,896.00
2018-10-16T06:10:13.931Z,952.00
2018-10-16T06:11:14.090Z,1028.00
2018-10-16T06:12:14.299Z,1116.00
2018-10-16T06:13:14.430Z,1196.00
2018-10-16T06:14:14.613Z,1268.00
2018-10-16T06:15:14.789Z,1356.00
2018-10-16T06:16:14.962Z,1452.00
2018-10-16T06:17:15.128Z,1532.00
2018-10-16T06:18:15.306Z,1600.00
2018-10-16T06:19:15.492Z,1672.00
2018-10-16T06:20:15.664Z,1824.00
2018-10-16T06:21:15.827Z,2324.00
2018-10-16T06:22:16.012Z,2940.00
2018-10-16T06:23:16.172Z,3156.00
2018-10-16T06:24:16.406Z,3184.00
2018-10-16T06:25:16.556Z,3072.00
2018-10-16T06:26:16.736Z,3348.00
2018-10-16T06:27:16.914Z,3836.00
2018-10-16T06:28:17.096Z,4080.00
2018-10-16T06:29:17.268Z,4276.00
2018-10-16T06:30:17.524Z,4400.00
2018-10-16T06:31:17.600Z,4528.00
2018-10-16T06:32:17.780Z,4580.00
2018-10-16T06:33:18.063Z,4644.00
2018-10-16T06:34:18.161Z,4788.00
2018-10-16T06:35:18.358Z,4972.00
2018-10-16T06:36:18.515Z,5200.00
2018-10-16T06:37:18.688Z,5220.00
2018-10-16T06:38:18.873Z,5300.00
2018-10-16T06:39:19.051Z,5340.00
2018-10-16T06:40:19.271Z,5324.00
2018-10-16T06:41:19.526Z,5144.00
2018-10-16T06:42:19.622Z,5164.00
2018-10-16T06:43:19.788Z,5176.00
2018-10-16T06:44:19.951Z,5144.00
2018-10-16T06:45:20.146Z,5052.00
2018-10-16T06:46:20.333Z,5124.00
2018-10-16T06:47:20.578Z,5136.00
2018-10-16T06:48:20.969Z,4956.00
2018-10-16T06:49:20.832Z,4460.00
2018-10-16T06:50:21.013Z,4372.00
2018-10-16T06:51:21.191Z,4488.00
2018-10-16T06:52:21.363Z,4484.00
2018-10-16T06:53:21.608Z,4144.00
2018-10-16T06:54:21.716Z,3416.00
2018-10-16T06:55:21.899Z,3108.00
2018-10-16T06:56:22.059Z,3164.00
2018-10-16T06:57:22.246Z,3020.00
2018-10-16T06:58:22.413Z,3040.00
2018-10-16T06:59:22.574Z,3216.00
2018-10-16T07:00:22.810Z,3520.00
2018-10-16T07:01:22.890Z,3792.00
2018-10-16T07:02:23.086Z,3920.00
2018-10-16T07:03:23.257Z,3848.00
2018-10-16T07:04:23.435Z,4312.00
2018-10-16T07:05:23.610Z,4748.00
2018-10-16T07:06:23.844Z,4868.00
2018-10-16T07:07:24.060Z,5000.00
2018-10-16T07:08:24.144Z,4868.00
2018-10-16T07:09:24.306Z,4644.00
2018-10-16T07:10:24.486Z,4208.00
2018-10-16T07:11:24.654Z,3800.00
2018-10-16T07:12:24.823Z,3836.00
2018-10-16T07:13:25.000Z,3812.00
2018-10-16T07:14:25.199Z,3840.00
2018-10-16T07:15:25.341Z,3944.00
2018-10-16T07:16:25.522Z,3984.00
2018-10-16T07:17:25.699Z,3996.00
2018-10-16T07:18:25.878Z,4120.00
2018-10-16T07:19:26.057Z,4352.00
2018-10-16T07:20:26.234Z,4692.00
2018-10-16T07:21:26.447Z,5176.00
2018-10-16T07:22:26.592Z,5352.00
2018-10-16T07:23:26.907Z,5228.00
2018-10-16T07:24:26.937Z,4960.00
2018-10-16T07:25:27.111Z,4944.00
2018-10-16T07:26:27.291Z,5148.00
2018-10-16T07:27:27.471Z,5076.00
2018-10-16T07:28:27.659Z,4944.00
2018-10-16T07:29:27.834Z,5020.00
2018-10-16T07:30:28.026Z,5116.00
2018-10-16T07:31:28.191Z,5056.00
2018-10-16T07:32:28.367Z,4712.00
2018-10-16T07:33:28.543Z,4560.00
2018-10-16T07:34:28.712Z,4608.00
2018-10-16T07:35:28.898Z,4840.00
2018-10-16T07:36:29.077Z,4852.00
2018-10-16T07:37:29.255Z,5224.00
2018-10-16T07:38:29.598Z,5308.00
2018-10-16T07:39:29.605Z,4908.00
2018-10-16T07:40:29.783Z,4784.00
2018-10-16T07:41:29.955Z,4460.00
2018-10-16T07:42:30.138Z,4800.00
2018-10-16T07:43:30.318Z,4664.00
2018-10-16T07:44:30.513Z,4824.00
2018-10-16T07:45:30.679Z,5160.00
2018-10-16T07:46:30.900Z,4672.00
2018-10-16T07:47:31.028Z,3476.00
2018-10-16T07:48:31.393Z,2892.00
2018-10-16T07:49:31.356Z,2840.00
2018-10-16T07:50:31.587Z,2800.00
2018-10-16T07:51:31.733Z,2820.00
2018-10-16T07:52:31.914Z,2868.00
2018-10-16T07:53:32.093Z,2932.00
2018-10-16T07:54:32.266Z,3000.00
2018-10-16T07:55:32.446Z,3076.00
2018-10-16T07:56:32.636Z,3244.00
2018-10-16T07:57:32.809Z,3364.00
2018-10-16T07:58:33.000Z,3328.00
2018-10-16T07:59:33.189Z,3512.00
2018-10-16T08:00:33.333Z,3436.00
2018-10-16T08:01:33.507Z,3120.00
2018-10-16T08:02:33.680Z,2896.00
2018-10-16T08:03:33.860Z,2828.00
2018-10-16T08:04:34.042Z,2836.00
2018-10-16T08:05:34.217Z,2884.00
2018-10-16T08:06:34.396Z,2940.00
2018-10-16T08:07:34.565Z,2968.00
2018-10-16T08:08:34.754Z,2948.00
2018-10-16T08:09:34.926Z,2948.00
2018-10-16T08:10:35.102Z,2972.00
2018-10-16T08:11:35.280Z,2992.00
2018-10-16T08:12:35.475Z,2992.00
2018-10-16T08:13:35.639Z,2964.00
2018-10-16T08:14:35.812Z,2960.00
2018-10-16T08:15:35.990Z,2956.00
2018-10-16T08:16:36.179Z,2932.00
2018-10-16T08:17:36.355Z,2900.00
2018-10-16T08:18:36.536Z,2876.00
2018-10-16T08:19:36.711Z,2856.00
2018-10-16T08:20:36.886Z,2848.00
2018-10-16T08:21:37.089Z,2840.00
2018-10-16T08:22:37.248Z,2816.00
2018-10-16T08:23:37.421Z,2804.00
2018-10-16T08:24:37.603Z,2804.00
2018-10-16T08:25:37.795Z,2796.00
2018-10-16T08:26:37.979Z,2804.00
2018-10-16T08:27:38.142Z,2800.00
2018-10-16T08:28:38.319Z,2780.00
2018-10-16T08:29:38.499Z,2756.00
2018-10-16T08:31:38.851Z,2720.00
2018-10-16T08:32:39.019Z,2704.00
2018-10-16T08:33:39.195Z,2708.00
2018-10-16T08:34:39.376Z,2728.00
2018-10-16T08:35:39.560Z,2760.00
2018-10-16T08:36:39.771Z,2792.00
2018-10-16T08:37:39.957Z,2832.00
2018-10-16T08:38:40.066Z,2860.00
2018-10-16T08:39:40.238Z,2892.00
2018-10-16T08:40:40.398Z,2932.00
2018-10-16T08:41:40.618Z,2984.00
2018-10-16T08:42:40.823Z,3016.00
2018-10-16T08:43:40.975Z,3068.00
2018-10-16T08:44:41.160Z,3104.00
2018-10-16T08:45:41.325Z,3152.00
2018-10-16T08:46:41.506Z,3204.00
2018-10-16T08:47:41.769Z,3264.00
2018-10-16T08:48:41.859Z,3320.00
2018-10-16T08:49:42.038Z,3376.00
2018-10-16T08:50:42.218Z,3440.00
2018-10-16T08:51:42.394Z,3500.00
2018-10-16T08:52:42.578Z,3556.00
2018-10-16T08:53:42.745Z,3600.00
2018-10-16T08:54:42.932Z,3644.00
2018-10-16T08:55:43.097Z,3668.00
2018-10-16T08:56:43.277Z,3684.00
2018-10-16T08:57:43.460Z,3704.00
2018-10-16T08:58:43.651Z,3744.00
2018-10-16T09:00:43.996Z,3836.00
2018-10-16T09:01:44.164Z,3908.00
2018-10-16T09:02:44.338Z,4060.00
2018-10-16T09:03:44.512Z,4132.00
2018-10-16T09:04:44.705Z,4212.00
2018-10-16T09:05:44.867Z,4320.00
2018-10-16T09:06:45.192Z,4560.00
2018-10-16T09:07:45.183Z,4796.00
2018-10-16T09:08:45.356Z,4716.00
2018-10-16T09:09:45.539Z,4720.00
2018-10-16T09:10:45.739Z,4748.00
2018-10-16T09:12:46.126Z,5052.00
2018-10-16T09:13:46.350Z,5108.00
2018-10-16T09:14:46.458Z,5140.00
2018-10-16T09:15:46.645Z,5368.00
2018-10-16T09:16:46.811Z,5924.00
2018-10-16T09:17:46.987Z,6048.00
2018-10-16T09:18:47.175Z,6412.00
2018-10-16T09:19:47.332Z,7612.00
2018-10-16T09:20:47.518Z,7368.00
2018-10-16T09:21:47.731Z,6704.00
2018-10-16T09:22:47.860Z,6528.00
2018-10-16T09:23:48.027Z,6884.00
2018-10-16T09:24:48.263Z,6432.00
2018-10-16T09:25:48.426Z,6456.00
2018-10-16T09:26:48.622Z,6592.00
2018-10-16T09:27:48.759Z,6236.00
2018-10-16T09:28:48.954Z,6336.00
2018-10-16T09:29:49.138Z,6280.00
2018-10-16T09:30:49.391Z,5776.00
2018-10-16T09:31:49.518Z,5200.00
2018-10-16T09:32:49.678Z,5764.00
2018-10-16T09:33:49.884Z,6996.00
2018-10-16T09:34:50.058Z,6320.00
2018-10-16T09:35:50.231Z,6628.00
2018-10-16T09:36:50.391Z,6460.00
2018-10-16T09:37:50.733Z,6328.00
2018-10-16T09:38:50.753Z,6500.00
2018-10-16T09:39:50.932Z,5848.00
2018-10-16T09:40:51.103Z,5856.00
2018-10-16T09:41:51.300Z,6152.00
2018-10-16T09:42:51.453Z,5740.00
2018-10-16T09:43:51.622Z,5948.00
2018-10-16T09:44:51.785Z,5584.00
2018-10-16T09:45:51.962Z,5360.00
2018-10-16T09:46:52.139Z,5164.00
2018-10-16T09:47:52.326Z,5100.00
2018-10-16T09:48:52.539Z,5064.00
2018-10-16T09:49:52.688Z,5436.00
2018-10-16T09:50:52.869Z,5856.00
2018-10-16T09:51:53.084Z,6520.00
2018-10-16T09:52:53.320Z,6152.00
2018-10-16T09:53:53.461Z,5500.00
2018-10-16T09:54:53.636Z,4852.00
2018-10-16T09:55:53.822Z,4716.00
2018-10-16T09:56:54.000Z,5008.00
2018-10-16T09:57:54.202Z,5088.00
2018-10-16T09:58:54.366Z,5236.00
2018-10-16T09:59:54.548Z,6060.00
2018-10-16T10:00:54.812Z,5376.00
2018-10-16T10:01:54.904Z,4784.00
2018-10-16T10:02:55.073Z,4548.00
2018-10-16T10:03:55.251Z,4760.00
2018-10-16T10:04:55.431Z,4544.00
2018-10-16T10:05:55.620Z,4472.00
2018-10-16T10:06:55.755Z,4388.00
2018-10-16T10:07:55.976Z,4520.00
2018-10-16T10:08:56.139Z,4404.00
2018-10-16T10:09:56.307Z,4564.00
2018-10-16T10:10:56.517Z,4368.00
2018-10-16T10:11:56.657Z,4332.00
2018-10-16T10:12:56.811Z,4416.00
2018-10-16T10:13:56.990Z,4520.00
2018-10-16T10:14:57.167Z,4628.00
2018-10-16T10:15:57.344Z,4692.00
2018-10-16T10:16:57.516Z,6460.00
2018-10-16T10:17:57.707Z,8324.00
2018-10-16T10:18:57.893Z,7840.00
2018-10-16T10:19:58.073Z,8364.00
2018-10-16T10:20:58.257Z,6316.00
2018-10-16T10:21:58.420Z,7328.00
2018-10-16T10:22:58.596Z,7576.00
2018-10-16T10:23:58.792Z,5392.00
2018-10-16T10:24:59.028Z,5392.00
2018-10-16T10:25:59.127Z,5228.00
2018-10-16T10:26:59.303Z,4964.00
2018-10-16T10:27:59.484Z,5164.00
2018-10-16T10:28:59.681Z,4924.00
2018-10-16T10:29:59.844Z,4844.00
2018-10-16T10:31:00.040Z,4760.00
2018-10-16T10:32:00.233Z,4884.00
2018-10-16T10:33:00.414Z,4812.00
2018-10-16T10:34:00.558Z,4860.00
2018-10-16T10:35:00.761Z,5076.00
2018-10-16T10:36:00.981Z,4808.00
2018-10-16T10:37:01.184Z,4568.00
2018-10-16T10:38:01.334Z,4480.00
2018-10-16T10:39:01.568Z,4464.00
2018-10-16T10:40:01.726Z,4496.00
2018-10-16T10:41:01.884Z,4584.00
2018-10-16T10:42:02.166Z,4804.00
2018-10-16T10:43:02.275Z,5456.00
2018-10-16T10:44:02.445Z,5084.00
2018-10-16T10:45:02.607Z,5116.00
2018-10-16T10:46:02.781Z,7212.00
2018-10-16T10:47:02.943Z,6024.00
2018-10-16T10:48:03.129Z,5744.00
2018-10-16T10:49:03.311Z,5144.00
2018-10-16T10:50:03.595Z,4672.00
2018-10-16T10:51:03.837Z,4632.00
2018-10-16T10:52:03.812Z,4616.00
2018-10-16T10:53:04.004Z,5244.00
2018-10-16T10:54:04.172Z,4696.00
2018-10-16T10:55:04.367Z,4588.00
2018-10-16T10:56:04.521Z,4556.00
2018-10-16T10:57:05.007Z,4628.00
2018-10-16T10:58:04.858Z,4544.00
2018-10-16T10:59:05.031Z,4532.00
2018-10-16T11:00:05.213Z,4556.00
2018-10-16T11:01:05.380Z,4512.00
2018-10-16T11:02:05.590Z,4476.00
2018-10-16T11:03:05.770Z,4436.00
2018-10-16T11:04:05.928Z,4424.00
2018-10-16T11:05:06.118Z,4420.00
2018-10-16T11:06:06.300Z,4416.00
2018-10-16T11:07:06.459Z,4376.00
2018-10-16T11:08:06.634Z,4328.00
2018-10-16T11:09:06.936Z,4268.00
2018-10-16T11:10:06.998Z,4220.00
2018-10-16T11:11:07.535Z,4184.00
2018-10-16T11:12:07.359Z,4176.00
2018-10-16T11:13:07.569Z,4176.00
2018-10-16T11:14:07.721Z,4168.00
2018-10-16T11:15:08.000Z,4176.00
2018-10-16T11:16:08.083Z,4204.00
2018-10-16T11:17:08.268Z,4232.00
2018-10-16T11:18:08.444Z,4268.00
2018-10-16T11:19:08.651Z,4320.00
2018-10-16T11:20:08.818Z,4356.00
2018-10-16T11:21:09.093Z,4412.00
2018-10-16T11:22:09.212Z,4520.00
2018-10-16T11:23:09.381Z,4464.00
2018-10-16T11:24:09.544Z,4492.00
2018-10-16T11:25:09.747Z,4760.00
2018-10-16T11:26:09.908Z,5304.00
2018-10-16T11:27:10.255Z,5424.00
2018-10-16T11:28:10.263Z,4548.00
2018-10-16T11:29:10.451Z,4380.00
2018-10-16T11:30:10.688Z,4264.00
2018-10-16T11:31:10.780Z,4148.00
2018-10-16T11:32:10.972Z,4076.00
2018-10-16T11:33:11.250Z,4036.00
2018-10-16T11:34:11.379Z,4000.00
2018-10-16T11:35:11.613Z,3964.00
2018-10-16T11:36:11.768Z,3924.00
2018-10-16T11:37:11.941Z,3904.00
2018-10-16T11:38:12.137Z,3900.00
2018-10-16T11:39:12.364Z,3896.00
2018-10-16T11:40:12.489Z,3900.00
2018-10-16T11:41:12.667Z,3908.00
2018-10-16T11:42:12.859Z,3920.00
2018-10-16T11:43:13.034Z,3920.00
2018-10-16T11:44:13.219Z,3920.00
2018-10-16T11:45:13.569Z,3920.00
2018-10-16T11:46:13.601Z,3908.00
2018-10-16T11:47:13.777Z,3904.00
2018-10-16T11:48:13.955Z,3900.00
2018-10-16T11:49:14.132Z,3896.00
2018-10-16T11:50:14.370Z,3896.00
2018-10-16T11:51:14.506Z,3888.00
2018-10-16T11:52:14.720Z,3884.00
2018-10-16T11:53:14.856Z,3880.00
2018-10-16T11:54:15.053Z,3868.00
2018-10-16T11:55:15.236Z,3868.00
2018-10-16T11:56:15.533Z,3856.00
2018-10-16T11:57:15.578Z,3856.00
2018-10-16T11:58:15.756Z,3860.00
2018-10-16T11:59:16.075Z,3852.00
2018-10-16T12:00:16.126Z,3836.00
2018-10-16T12:01:16.294Z,3824.00
2018-10-16T12:02:16.670Z,3800.00
2018-10-16T12:03:16.655Z,3752.00
2018-10-16T12:04:16.856Z,3724.00
2018-10-16T12:05:17.011Z,3684.00
2018-10-16T12:06:17.188Z,3628.00
2018-10-16T12:07:17.467Z,3560.00
2018-10-16T12:08:17.640Z,3468.00
2018-10-16T12:09:17.697Z,3372.00
2018-10-16T12:10:17.871Z,3276.00
2018-10-16T12:11:18.149Z,3196.00
2018-10-16T12:12:18.248Z,3124.00
2018-10-16T12:13:18.660Z,3060.00
2018-10-16T12:14:18.593Z,3016.00
2018-10-16T12:15:18.775Z,2976.00
2018-10-16T12:16:18.983Z,2952.00
2018-10-16T12:17:19.151Z,2924.00
2018-10-16T12:18:19.348Z,2900.00
2018-10-16T12:19:19.542Z,2880.00
2018-10-16T12:20:19.707Z,2856.00
2018-10-16T12:21:19.862Z,2832.00
2018-10-16T12:22:20.066Z,2816.00
2018-10-16T12:23:20.309Z,2808.00
2018-10-16T12:24:20.453Z,2788.00
2018-10-16T12:25:20.643Z,2784.00
2018-10-16T12:26:20.823Z,2792.00
2018-10-16T12:27:21.029Z,2800.00
2018-10-16T12:28:21.195Z,2812.00
2018-10-16T12:29:21.357Z,2820.00
2018-10-16T12:30:21.564Z,2812.00
2018-10-16T12:31:21.714Z,2796.00
2018-10-16T12:32:22.013Z,2768.00
2018-10-16T12:33:22.095Z,2736.00
2018-10-16T12:34:22.268Z,2672.00
2018-10-16T12:35:22.445Z,2624.00
2018-10-16T12:36:22.656Z,2584.00
2018-10-16T12:37:22.814Z,2520.00
2018-10-16T12:38:23.049Z,2500.00
2018-10-16T12:39:23.161Z,2488.00
2018-10-16T12:40:23.348Z,2476.00
2018-10-16T12:41:23.531Z,2484.00
2018-10-16T12:42:26.306Z,2500.00